sensor_id;sensor_type;location;lat;lon;timestamp;P1;durP1;ratioP1;P2;durP2;ratioP2
21198;SDS011;10757;51.038;3.712;2022-12-19T00:00:44;28.33;;;13.73;;
21198;SDS011;10757;51.038;3.712;2022-12-19T00:05:51;28.92;;;14.65;;
21198;SDS011;10757;51.038;3.712;2022-12-19T00:08:17;31.48;;;15.45;;
21198;SDS011;10757;51.038;3.712;2022-12-19T00:10:42;26.30;;;15.45;;
21198;SDS011;10757;51.038;3.712;2022-12-19T00:13:08;27.35;;;13.25;;
21198;SDS011;10757;51.038;3.712;2022-12-19T00:15:34;27.25;;;14.60;;
21198;SDS011;10757;51.038;3.712;2022-12-19T00:18:01;26.13;;;14.13;;
21198;SDS011;10757;51.038;3.712;2022-12-19T00:20:27;27.45;;;14.10;;
21198;SDS011;10757;51.038;3.712;2022-12-19T00:22:52;29.30;;;14.23;;
21198;SDS011;10757;51.038;3.712;2022-12-19T00:25:18;30.10;;;14.25;;
21198;SDS011;10757;51.038;3.712;2022-12-19T00:27:44;27.90;;;14.45;;
21198;SDS011;10757;51.038;3.712;2022-12-19T00:30:11;32.67;;;15.77;;
21198;SDS011;10757;51.038;3.712;2022-12-19T00:32:36;29.73;;;15.00;;
21198;SDS011;10757;51.038;3.712;2022-12-19T00:35:02;31.00;;;15.23;;
21198;SDS011;10757;51.038;3.712;2022-12-19T00:37:28;31.70;;;14.90;;
21198;SDS011;10757;51.038;3.712;2022-12-19T00:39:54;25.15;;;14.93;;
21198;SDS011;10757;51.038;3.712;2022-12-19T00:42:19;23.38;;;11.23;;
21198;SDS011;10757;51.038;3.712;2022-12-19T00:44:46;24.90;;;12.95;;
21198;SDS011;10757;51.038;3.712;2022-12-19T00:47:11;24.95;;;13.85;;
21198;SDS011;10757;51.038;3.712;2022-12-19T00:49:37;26.63;;;14.40;;
21198;SDS011;10757;51.038;3.712;2022-12-19T00:52:03;27.73;;;13.35;;
21198;SDS011;10757;51.038;3.712;2022-12-19T00:54:30;25.42;;;15.13;;
21198;SDS011;10757;51.038;3.712;2022-12-19T00:56:55;25.38;;;14.05;;
21198;SDS011;10757;51.038;3.712;2022-12-19T00:59:21;19.75;;;11.27;;
21198;SDS011;10757;51.038;3.712;2022-12-19T01:01:46;22.88;;;13.63;;
21198;SDS011;10757;51.038;3.712;2022-12-19T01:04:12;20.80;;;11.68;;
21198;SDS011;10757;51.038;3.712;2022-12-19T01:06:38;22.70;;;11.50;;
21198;SDS011;10757;51.038;3.712;2022-12-19T01:09:05;19.77;;;10.55;;
21198;SDS011;10757;51.038;3.712;2022-12-19T01:11:30;18.08;;;10.82;;
21198;SDS011;10757;51.038;3.712;2022-12-19T01:14:14;17.77;;;9.52;;
21198;SDS011;10757;51.038;3.712;2022-12-19T01:16:40;16.33;;;8.88;;
21198;SDS011;10757;51.038;3.712;2022-12-19T01:19:06;15.88;;;9.27;;
21198;SDS011;10757;51.038;3.712;2022-12-19T01:21:32;18.50;;;10.15;;
21198;SDS011;10757;51.038;3.712;2022-12-19T01:24:03;13.88;;;7.70;;
21198;SDS011;10757;51.038;3.712;2022-12-19T01:26:29;15.10;;;9.15;;
21198;SDS011;10757;51.038;3.712;2022-12-19T01:28:55;16.75;;;9.45;;
21198;SDS011;10757;51.038;3.712;2022-12-19T01:31:21;18.85;;;10.73;;
21198;SDS011;10757;51.038;3.712;2022-12-19T01:33:46;14.90;;;9.00;;
21198;SDS011;10757;51.038;3.712;2022-12-19T01:36:12;17.90;;;10.55;;
21198;SDS011;10757;51.038;3.712;2022-12-19T01:38:38;16.38;;;9.82;;
21198;SDS011;10757;51.038;3.712;2022-12-19T01:41:04;15.60;;;9.10;;
21198;SDS011;10757;51.038;3.712;2022-12-19T01:43:32;18.50;;;10.35;;
21198;SDS011;10757;51.038;3.712;2022-12-19T01:46:18;16.08;;;10.55;;
21198;SDS011;10757;51.038;3.712;2022-12-19T01:48:53;19.23;;;10.88;;
21198;SDS011;10757;51.038;3.712;2022-12-19T01:51:20;16.95;;;10.43;;
21198;SDS011;10757;51.038;3.712;2022-12-19T01:53:53;19.65;;;10.68;;
21198;SDS011;10757;51.038;3.712;2022-12-19T01:56:29;15.32;;;8.43;;
21198;SDS011;10757;51.038;3.712;2022-12-19T01:58:59;20.35;;;11.13;;
21198;SDS011;10757;51.038;3.712;2022-12-19T02:01:30;19.05;;;10.68;;
21198;SDS011;10757;51.038;3.712;2022-12-19T02:03:56;18.35;;;11.48;;
21198;SDS011;10757;51.038;3.712;2022-12-19T02:06:24;15.63;;;9.40;;
21198;SDS011;10757;51.038;3.712;2022-12-19T02:08:51;18.88;;;10.95;;
21198;SDS011;10757;51.038;3.712;2022-12-19T02:11:18;16.30;;;10.85;;
21198;SDS011;10757;51.038;3.712;2022-12-19T02:13:43;22.60;;;11.27;;
21198;SDS011;10757;51.038;3.712;2022-12-19T02:34:52;18.38;;;10.68;;
21198;SDS011;10757;51.038;3.712;2022-12-19T02:37:45;19.23;;;11.27;;
21198;SDS011;10757;51.038;3.712;2022-12-19T02:40:30;17.88;;;10.55;;
21198;SDS011;10757;51.038;3.712;2022-12-19T02:43:03;15.60;;;9.60;;
21198;SDS011;10757;51.038;3.712;2022-12-19T02:45:34;16.10;;;10.43;;
21198;SDS011;10757;51.038;3.712;2022-12-19T02:48:03;20.63;;;11.77;;
21198;SDS011;10757;51.038;3.712;2022-12-19T02:50:37;15.07;;;8.90;;
21198;SDS011;10757;51.038;3.712;2022-12-19T02:53:04;16.35;;;10.68;;
21198;SDS011;10757;51.038;3.712;2022-12-19T02:55:31;17.27;;;9.23;;
21198;SDS011;10757;51.038;3.712;2022-12-19T02:58:28;18.08;;;11.00;;
21198;SDS011;10757;51.038;3.712;2022-12-19T03:01:11;15.35;;;10.52;;
21198;SDS011;10757;51.038;3.712;2022-12-19T03:03:57;17.17;;;10.45;;
21198;SDS011;10757;51.038;3.712;2022-12-19T03:06:33;13.25;;;7.70;;
21198;SDS011;10757;51.038;3.712;2022-12-19T03:09:47;15.57;;;9.40;;
21198;SDS011;10757;51.038;3.712;2022-12-19T03:12:29;15.68;;;9.30;;
21198;SDS011;10757;51.038;3.712;2022-12-19T03:15:01;18.42;;;11.05;;
21198;SDS011;10757;51.038;3.712;2022-12-19T03:17:27;18.77;;;11.27;;
21198;SDS011;10757;51.038;3.712;2022-12-19T03:19:58;17.65;;;10.48;;
21198;SDS011;10757;51.038;3.712;2022-12-19T03:22:24;17.23;;;10.35;;
21198;SDS011;10757;51.038;3.712;2022-12-19T03:24:50;16.38;;;11.15;;
21198;SDS011;10757;51.038;3.712;2022-12-19T03:27:21;16.92;;;11.35;;
21198;SDS011;10757;51.038;3.712;2022-12-19T03:30:00;18.13;;;10.25;;
21198;SDS011;10757;51.038;3.712;2022-12-19T03:32:35;18.02;;;9.27;;
21198;SDS011;10757;51.038;3.712;2022-12-19T03:35:13;16.98;;;10.35;;
21198;SDS011;10757;51.038;3.712;2022-12-19T03:37:43;17.23;;;10.93;;
21198;SDS011;10757;51.038;3.712;2022-12-19T03:40:13;15.95;;;9.77;;
21198;SDS011;10757;51.038;3.712;2022-12-19T03:42:42;15.32;;;10.50;;
21198;SDS011;10757;51.038;3.712;2022-12-19T03:48:06;16.00;;;9.75;;
21198;SDS011;10757;51.038;3.712;2022-12-19T03:50:45;18.23;;;10.10;;
21198;SDS011;10757;51.038;3.712;2022-12-19T03:55:46;16.23;;;9.77;;
21198;SDS011;10757;51.038;3.712;2022-12-19T03:58:18;16.15;;;9.63;;
21198;SDS011;10757;51.038;3.712;2022-12-19T04:00:51;15.65;;;9.55;;
21198;SDS011;10757;51.038;3.712;2022-12-19T04:03:18;12.48;;;9.18;;
21198;SDS011;10757;51.038;3.712;2022-12-19T04:05:46;14.70;;;9.10;;
21198;SDS011;10757;51.038;3.712;2022-12-19T04:08:13;15.98;;;9.70;;
21198;SDS011;10757;51.038;3.712;2022-12-19T04:10:47;15.48;;;8.90;;
21198;SDS011;10757;51.038;3.712;2022-12-19T04:13:16;15.23;;;9.50;;
21198;SDS011;10757;51.038;3.712;2022-12-19T04:18:54;14.32;;;8.25;;
21198;SDS011;10757;51.038;3.712;2022-12-19T04:21:35;16.23;;;8.30;;
21198;SDS011;10757;51.038;3.712;2022-12-19T04:24:19;14.20;;;8.90;;
21198;SDS011;10757;51.038;3.712;2022-12-19T04:26:50;15.70;;;9.40;;
21198;SDS011;10757;51.038;3.712;2022-12-19T04:29:18;15.88;;;8.60;;
21198;SDS011;10757;51.038;3.712;2022-12-19T04:31:44;11.30;;;7.78;;
21198;SDS011;10757;51.038;3.712;2022-12-19T04:34:12;13.35;;;8.30;;
21198;SDS011;10757;51.038;3.712;2022-12-19T04:36:41;13.98;;;8.23;;
21198;SDS011;10757;51.038;3.712;2022-12-19T04:39:07;12.18;;;7.93;;
21198;SDS011;10757;51.038;3.712;2022-12-19T04:41:33;12.70;;;8.55;;
21198;SDS011;10757;51.038;3.712;2022-12-19T04:43:58;11.65;;;8.50;;
21198;SDS011;10757;51.038;3.712;2022-12-19T04:46:24;12.10;;;7.80;;
21198;SDS011;10757;51.038;3.712;2022-12-19T04:48:50;13.05;;;7.90;;
21198;SDS011;10757;51.038;3.712;2022-12-19T04:51:15;12.95;;;7.88;;
21198;SDS011;10757;51.038;3.712;2022-12-19T04:53:41;13.05;;;7.50;;
21198;SDS011;10757;51.038;3.712;2022-12-19T04:56:08;11.98;;;7.22;;
21198;SDS011;10757;51.038;3.712;2022-12-19T04:58:34;14.80;;;8.05;;
21198;SDS011;10757;51.038;3.712;2022-12-19T05:01:03;14.18;;;7.70;;
21198;SDS011;10757;51.038;3.712;2022-12-19T05:03:30;12.18;;;8.00;;
21198;SDS011;10757;51.038;3.712;2022-12-19T05:06:04;14.43;;;7.88;;
21198;SDS011;10757;51.038;3.712;2022-12-19T05:08:38;11.13;;;7.45;;
21198;SDS011;10757;51.038;3.712;2022-12-19T05:11:07;13.73;;;7.60;;
21198;SDS011;10757;51.038;3.712;2022-12-19T05:13:33;12.45;;;8.40;;
21198;SDS011;10757;51.038;3.712;2022-12-19T05:16:00;12.13;;;7.72;;
21198;SDS011;10757;51.038;3.712;2022-12-19T05:18:28;10.23;;;5.88;;
21198;SDS011;10757;51.038;3.712;2022-12-19T05:20:54;11.52;;;7.13;;
21198;SDS011;10757;51.038;3.712;2022-12-19T05:23:20;14.32;;;7.57;;
21198;SDS011;10757;51.038;3.712;2022-12-19T05:25:46;14.88;;;8.20;;
21198;SDS011;10757;51.038;3.712;2022-12-19T05:28:13;11.95;;;6.72;;
21198;SDS011;10757;51.038;3.712;2022-12-19T05:30:39;12.40;;;7.30;;
21198;SDS011;10757;51.038;3.712;2022-12-19T05:33:05;13.10;;;7.72;;
21198;SDS011;10757;51.038;3.712;2022-12-19T05:35:31;11.68;;;7.45;;
21198;SDS011;10757;51.038;3.712;2022-12-19T05:37:58;12.15;;;7.55;;
21198;SDS011;10757;51.038;3.712;2022-12-19T05:40:23;9.57;;;6.20;;
21198;SDS011;10757;51.038;3.712;2022-12-19T05:42:49;9.93;;;6.20;;
21198;SDS011;10757;51.038;3.712;2022-12-19T05:45:15;9.75;;;6.15;;
21198;SDS011;10757;51.038;3.712;2022-12-19T05:47:40;11.32;;;6.90;;
21198;SDS011;10757;51.038;3.712;2022-12-19T05:50:08;11.38;;;6.93;;
21198;SDS011;10757;51.038;3.712;2022-12-19T05:52:35;13.63;;;7.25;;
21198;SDS011;10757;51.038;3.712;2022-12-19T05:55:03;14.15;;;6.88;;
21198;SDS011;10757;51.038;3.712;2022-12-19T05:57:30;9.60;;;6.18;;
21198;SDS011;10757;51.038;3.712;2022-12-19T05:59:55;10.20;;;6.13;;
21198;SDS011;10757;51.038;3.712;2022-12-19T06:02:21;10.05;;;6.20;;
21198;SDS011;10757;51.038;3.712;2022-12-19T06:04:48;11.85;;;6.60;;
21198;SDS011;10757;51.038;3.712;2022-12-19T06:07:13;11.80;;;7.45;;
21198;SDS011;10757;51.038;3.712;2022-12-19T06:09:39;10.38;;;6.03;;
21198;SDS011;10757;51.038;3.712;2022-12-19T06:12:05;10.35;;;6.78;;
21198;SDS011;10757;51.038;3.712;2022-12-19T06:14:31;9.80;;;6.35;;
21198;SDS011;10757;51.038;3.712;2022-12-19T06:16:57;10.73;;;5.97;;
21198;SDS011;10757;51.038;3.712;2022-12-19T06:19:23;11.00;;;5.80;;
21198;SDS011;10757;51.038;3.712;2022-12-19T06:21:49;10.95;;;5.60;;
21198;SDS011;10757;51.038;3.712;2022-12-19T06:24:15;11.45;;;5.80;;
21198;SDS011;10757;51.038;3.712;2022-12-19T06:26:42;11.25;;;5.68;;
21198;SDS011;10757;51.038;3.712;2022-12-19T06:29:08;13.27;;;6.63;;
21198;SDS011;10757;51.038;3.712;2022-12-19T06:31:34;12.30;;;5.95;;
21198;SDS011;10757;51.038;3.712;2022-12-19T06:33:59;8.10;;;5.35;;
21198;SDS011;10757;51.038;3.712;2022-12-19T06:36:27;10.30;;;5.70;;
21198;SDS011;10757;51.038;3.712;2022-12-19T06:38:55;10.10;;;5.80;;
21198;SDS011;10757;51.038;3.712;2022-12-19T06:41:24;9.07;;;5.70;;
21198;SDS011;10757;51.038;3.712;2022-12-19T06:44:10;10.48;;;6.30;;
21198;SDS011;10757;51.038;3.712;2022-12-19T06:46:37;9.05;;;6.38;;
21198;SDS011;10757;51.038;3.712;2022-12-19T06:49:03;10.15;;;5.60;;
21198;SDS011;10757;51.038;3.712;2022-12-19T06:51:30;7.60;;;5.43;;
21198;SDS011;10757;51.038;3.712;2022-12-19T06:53:56;9.15;;;5.63;;
21198;SDS011;10757;51.038;3.712;2022-12-19T06:56:22;8.02;;;5.13;;
21198;SDS011;10757;51.038;3.712;2022-12-19T06:58:51;11.07;;;6.13;;
21198;SDS011;10757;51.038;3.712;2022-12-19T07:04:05;8.55;;;5.55;;
21198;SDS011;10757;51.038;3.712;2022-12-19T07:06:34;9.40;;;5.25;;
21198;SDS011;10757;51.038;3.712;2022-12-19T07:08:59;8.48;;;5.03;;
21198;SDS011;10757;51.038;3.712;2022-12-19T07:11:25;9.00;;;4.18;;
21198;SDS011;10757;51.038;3.712;2022-12-19T07:13:51;8.93;;;5.32;;
21198;SDS011;10757;51.038;3.712;2022-12-19T07:16:16;10.93;;;5.32;;
21198;SDS011;10757;51.038;3.712;2022-12-19T07:18:42;9.68;;;4.65;;
21198;SDS011;10757;51.038;3.712;2022-12-19T07:21:08;9.25;;;4.95;;
21198;SDS011;10757;51.038;3.712;2022-12-19T07:23:35;7.85;;;4.88;;
21198;SDS011;10757;51.038;3.712;2022-12-19T07:26:01;8.18;;;4.50;;
21198;SDS011;10757;51.038;3.712;2022-12-19T07:28:27;7.57;;;4.80;;
21198;SDS011;10757;51.038;3.712;2022-12-19T07:30:53;8.27;;;5.40;;
21198;SDS011;10757;51.038;3.712;2022-12-19T07:33:19;9.73;;;5.20;;
21198;SDS011;10757;51.038;3.712;2022-12-19T07:35:45;7.95;;;4.63;;
21198;SDS011;10757;51.038;3.712;2022-12-19T07:38:11;9.27;;;5.30;;
21198;SDS011;10757;51.038;3.712;2022-12-19T07:40:37;9.30;;;5.10;;
21198;SDS011;10757;51.038;3.712;2022-12-19T07:43:03;9.23;;;5.30;;
21198;SDS011;10757;51.038;3.712;2022-12-19T07:45:30;9.88;;;4.80;;
21198;SDS011;10757;51.038;3.712;2022-12-19T07:47:58;10.85;;;4.88;;
21198;SDS011;10757;51.038;3.712;2022-12-19T07:50:25;9.88;;;5.30;;
21198;SDS011;10757;51.038;3.712;2022-12-19T07:52:51;6.50;;;4.10;;
21198;SDS011;10757;51.038;3.712;2022-12-19T07:55:17;8.80;;;4.78;;
21198;SDS011;10757;51.038;3.712;2022-12-19T07:57:43;7.70;;;4.10;;
21198;SDS011;10757;51.038;3.712;2022-12-19T08:00:09;7.90;;;4.50;;
21198;SDS011;10757;51.038;3.712;2022-12-19T08:02:35;9.88;;;4.85;;
21198;SDS011;10757;51.038;3.712;2022-12-19T08:05:00;8.98;;;5.05;;
21198;SDS011;10757;51.038;3.712;2022-12-19T08:07:27;7.68;;;5.30;;
21198;SDS011;10757;51.038;3.712;2022-12-19T08:09:52;10.02;;;5.40;;
21198;SDS011;10757;51.038;3.712;2022-12-19T08:12:18;8.07;;;4.15;;
21198;SDS011;10757;51.038;3.712;2022-12-19T08:14:44;7.60;;;4.60;;
21198;SDS011;10757;51.038;3.712;2022-12-19T08:17:10;7.20;;;4.53;;
21198;SDS011;10757;51.038;3.712;2022-12-19T08:19:36;8.93;;;4.68;;
21198;SDS011;10757;51.038;3.712;2022-12-19T08:22:01;8.45;;;4.43;;
21198;SDS011;10757;51.038;3.712;2022-12-19T08:24:28;8.40;;;4.72;;
21198;SDS011;10757;51.038;3.712;2022-12-19T08:26:56;9.02;;;4.53;;
21198;SDS011;10757;51.038;3.712;2022-12-19T08:29:22;9.25;;;4.15;;
21198;SDS011;10757;51.038;3.712;2022-12-19T08:31:47;8.23;;;4.55;;
21198;SDS011;10757;51.038;3.712;2022-12-19T08:34:13;6.57;;;3.58;;
21198;SDS011;10757;51.038;3.712;2022-12-19T08:36:39;8.50;;;4.22;;
21198;SDS011;10757;51.038;3.712;2022-12-19T08:39:05;7.25;;;3.90;;
21198;SDS011;10757;51.038;3.712;2022-12-19T08:41:31;7.32;;;4.68;;
21198;SDS011;10757;51.038;3.712;2022-12-19T08:43:59;7.70;;;4.75;;
21198;SDS011;10757;51.038;3.712;2022-12-19T08:46:26;8.98;;;4.53;;
21198;SDS011;10757;51.038;3.712;2022-12-19T08:48:52;8.48;;;4.07;;
21198;SDS011;10757;51.038;3.712;2022-12-19T08:51:17;7.93;;;4.18;;
21198;SDS011;10757;51.038;3.712;2022-12-19T08:53:46;7.25;;;4.15;;
21198;SDS011;10757;51.038;3.712;2022-12-19T08:56:13;6.53;;;4.20;;
21198;SDS011;10757;51.038;3.712;2022-12-19T08:58:40;8.65;;;3.63;;
21198;SDS011;10757;51.038;3.712;2022-12-19T09:01:07;7.97;;;3.97;;
21198;SDS011;10757;51.038;3.712;2022-12-19T09:03:35;7.22;;;3.60;;
21198;SDS011;10757;51.038;3.712;2022-12-19T09:06:05;10.18;;;3.47;;
21198;SDS011;10757;51.038;3.712;2022-12-19T09:08:34;8.13;;;4.10;;
21198;SDS011;10757;51.038;3.712;2022-12-19T09:11:03;7.30;;;3.90;;
21198;SDS011;10757;51.038;3.712;2022-12-19T09:13:32;10.50;;;4.95;;
21198;SDS011;10757;51.038;3.712;2022-12-19T09:16:01;11.75;;;6.47;;
21198;SDS011;10757;51.038;3.712;2022-12-19T09:18:28;6.57;;;3.90;;
21198;SDS011;10757;51.038;3.712;2022-12-19T09:20:58;6.97;;;3.90;;
21198;SDS011;10757;51.038;3.712;2022-12-19T09:25:54;9.15;;;4.57;;
21198;SDS011;10757;51.038;3.712;2022-12-19T09:28:21;6.53;;;4.53;;
21198;SDS011;10757;51.038;3.712;2022-12-19T09:30:57;7.07;;;3.70;;
21198;SDS011;10757;51.038;3.712;2022-12-19T09:33:30;12.10;;;4.57;;
21198;SDS011;10757;51.038;3.712;2022-12-19T09:35:57;8.10;;;4.20;;
21198;SDS011;10757;51.038;3.712;2022-12-19T09:38:23;8.55;;;4.53;;
21198;SDS011;10757;51.038;3.712;2022-12-19T09:40:53;8.07;;;4.70;;
21198;SDS011;10757;51.038;3.712;2022-12-19T09:43:31;9.63;;;4.70;;
21198;SDS011;10757;51.038;3.712;2022-12-19T09:46:14;9.02;;;4.40;;
21198;SDS011;10757;51.038;3.712;2022-12-19T09:48:43;9.95;;;4.00;;
21198;SDS011;10757;51.038;3.712;2022-12-19T09:56:32;9.02;;;4.63;;
21198;SDS011;10757;51.038;3.712;2022-12-19T10:04:48;7.85;;;3.78;;
21198;SDS011;10757;51.038;3.712;2022-12-19T10:07:17;10.57;;;4.32;;
21198;SDS011;10757;51.038;3.712;2022-12-19T10:09:44;6.57;;;3.53;;
21198;SDS011;10757;51.038;3.712;2022-12-19T10:20:23;6.95;;;4.25;;
21198;SDS011;10757;51.038;3.712;2022-12-19T10:23:18;11.43;;;4.20;;
21198;SDS011;10757;51.038;3.712;2022-12-19T10:26:17;9.57;;;4.47;;
21198;SDS011;10757;51.038;3.712;2022-12-19T10:34:43;8.35;;;3.75;;
21198;SDS011;10757;51.038;3.712;2022-12-19T10:39:50;8.02;;;3.45;;
21198;SDS011;10757;51.038;3.712;2022-12-19T10:42:43;7.43;;;3.88;;
21198;SDS011;10757;51.038;3.712;2022-12-19T10:45:15;6.88;;;3.60;;
21198;SDS011;10757;51.038;3.712;2022-12-19T10:47:48;7.57;;;4.07;;
21198;SDS011;10757;51.038;3.712;2022-12-19T10:50:26;8.02;;;3.30;;
21198;SDS011;10757;51.038;3.712;2022-12-19T10:52:55;7.38;;;3.92;;
21198;SDS011;10757;51.038;3.712;2022-12-19T11:03:41;10.98;;;4.93;;
21198;SDS011;10757;51.038;3.712;2022-12-19T11:17:51;7.38;;;3.88;;
21198;SDS011;10757;51.038;3.712;2022-12-19T11:22:49;7.97;;;3.63;;
21198;SDS011;10757;51.038;3.712;2022-12-19T11:25:20;6.10;;;3.35;;
21198;SDS011;10757;51.038;3.712;2022-12-19T11:27:48;6.63;;;3.38;;
21198;SDS011;10757;51.038;3.712;2022-12-19T11:32:43;6.57;;;3.40;;
21198;SDS011;10757;51.038;3.712;2022-12-19T11:40:27;5.32;;;3.38;;
21198;SDS011;10757;51.038;3.712;2022-12-19T11:56:38;9.65;;;3.50;;
21198;SDS011;10757;51.038;3.712;2022-12-19T12:07:18;5.22;;;3.05;;
21198;SDS011;10757;51.038;3.712;2022-12-19T12:09:58;8.20;;;3.58;;
21198;SDS011;10757;51.038;3.712;2022-12-19T12:15:34;11.18;;;5.13;;
21198;SDS011;10757;51.038;3.712;2022-12-19T12:20:52;6.43;;;3.38;;
21198;SDS011;10757;51.038;3.712;2022-12-19T12:26:40;6.68;;;3.17;;
21198;SDS011;10757;51.038;3.712;2022-12-19T12:29:26;5.47;;;3.10;;
21198;SDS011;10757;51.038;3.712;2022-12-19T12:46:38;6.15;;;3.03;;
21198;SDS011;10757;51.038;3.712;2022-12-19T12:49:30;9.07;;;3.10;;
21198;SDS011;10757;51.038;3.712;2022-12-19T12:52:03;13.20;;;4.65;;
21198;SDS011;10757;51.038;3.712;2022-12-19T12:54:33;6.28;;;2.97;;
21198;SDS011;10757;51.038;3.712;2022-12-19T12:57:02;5.15;;;2.58;;
21198;SDS011;10757;51.038;3.712;2022-12-19T12:59:29;6.53;;;2.80;;
21198;SDS011;10757;51.038;3.712;2022-12-19T13:01:56;7.20;;;3.72;;
21198;SDS011;10757;51.038;3.712;2022-12-19T13:04:25;6.32;;;2.97;;
21198;SDS011;10757;51.038;3.712;2022-12-19T13:12:52;6.30;;;2.88;;
21198;SDS011;10757;51.038;3.712;2022-12-19T13:15:33;7.45;;;3.63;;
21198;SDS011;10757;51.038;3.712;2022-12-19T13:20:42;8.75;;;2.83;;
21198;SDS011;10757;51.038;3.712;2022-12-19T13:23:31;7.95;;;3.25;;
21198;SDS011;10757;51.038;3.712;2022-12-19T13:26:00;9.35;;;3.58;;
21198;SDS011;10757;51.038;3.712;2022-12-19T13:33:45;6.93;;;3.35;;
21198;SDS011;10757;51.038;3.712;2022-12-19T13:39:31;7.75;;;3.08;;
21198;SDS011;10757;51.038;3.712;2022-12-19T13:45:04;8.15;;;3.45;;
21198;SDS011;10757;51.038;3.712;2022-12-19T13:47:36;7.13;;;3.38;;
21198;SDS011;10757;51.038;3.712;2022-12-19T13:50:14;5.70;;;3.10;;
21198;SDS011;10757;51.038;3.712;2022-12-19T13:52:52;6.80;;;2.60;;
21198;SDS011;10757;51.038;3.712;2022-12-19T13:55:18;9.05;;;2.90;;
21198;SDS011;10757;51.038;3.712;2022-12-19T13:57:48;6.45;;;2.63;;
21198;SDS011;10757;51.038;3.712;2022-12-19T14:00:29;5.68;;;2.80;;
21198;SDS011;10757;51.038;3.712;2022-12-19T14:03:03;5.70;;;2.88;;
21198;SDS011;10757;51.038;3.712;2022-12-19T14:05:44;7.63;;;3.30;;
21198;SDS011;10757;51.038;3.712;2022-12-19T14:08:11;5.95;;;2.90;;
21198;SDS011;10757;51.038;3.712;2022-12-19T14:10:44;6.95;;;2.75;;
21198;SDS011;10757;51.038;3.712;2022-12-19T14:13:14;7.05;;;2.50;;
21198;SDS011;10757;51.038;3.712;2022-12-19T14:16:02;9.82;;;2.85;;
21198;SDS011;10757;51.038;3.712;2022-12-19T14:18:30;7.13;;;3.20;;
21198;SDS011;10757;51.038;3.712;2022-12-19T14:21:14;10.15;;;2.88;;
21198;SDS011;10757;51.038;3.712;2022-12-19T14:23:46;6.82;;;2.70;;
21198;SDS011;10757;51.038;3.712;2022-12-19T14:26:20;11.18;;;3.53;;
21198;SDS011;10757;51.038;3.712;2022-12-19T14:28:57;9.50;;;2.95;;
21198;SDS011;10757;51.038;3.712;2022-12-19T14:31:30;7.38;;;3.13;;
21198;SDS011;10757;51.038;3.712;2022-12-19T14:33:57;6.63;;;2.95;;
21198;SDS011;10757;51.038;3.712;2022-12-19T14:36:24;6.03;;;2.75;;
21198;SDS011;10757;51.038;3.712;2022-12-19T14:38:52;8.10;;;2.80;;
21198;SDS011;10757;51.038;3.712;2022-12-19T14:44:13;5.22;;;2.60;;
21198;SDS011;10757;51.038;3.712;2022-12-19T14:46:40;4.65;;;2.50;;
21198;SDS011;10757;51.038;3.712;2022-12-19T14:51:54;6.45;;;2.95;;
21198;SDS011;10757;51.038;3.712;2022-12-19T14:54:21;6.25;;;2.55;;
21198;SDS011;10757;51.038;3.712;2022-12-19T14:56:59;8.40;;;3.45;;
21198;SDS011;10757;51.038;3.712;2022-12-19T14:59:29;9.05;;;3.72;;
21198;SDS011;10757;51.038;3.712;2022-12-19T15:02:43;7.55;;;3.03;;
21198;SDS011;10757;51.038;3.712;2022-12-19T15:05:06;7.10;;;3.42;;
21198;SDS011;10757;51.038;3.712;2022-12-19T15:07:39;9.60;;;3.10;;
21198;SDS011;10757;51.038;3.712;2022-12-19T15:10:50;11.68;;;3.50;;
21198;SDS011;10757;51.038;3.712;2022-12-19T15:12:59;8.63;;;3.00;;
21198;SDS011;10757;51.038;3.712;2022-12-19T15:18:20;7.50;;;2.70;;
21198;SDS011;10757;51.038;3.712;2022-12-19T15:20:47;12.43;;;3.40;;
21198;SDS011;10757;51.038;3.712;2022-12-19T15:23:14;5.90;;;2.78;;
21198;SDS011;10757;51.038;3.712;2022-12-19T15:25:41;6.22;;;3.35;;
21198;SDS011;10757;51.038;3.712;2022-12-19T15:31:06;8.65;;;3.20;;
21198;SDS011;10757;51.038;3.712;2022-12-19T15:33:41;8.00;;;3.08;;
21198;SDS011;10757;51.038;3.712;2022-12-19T15:36:07;5.68;;;2.83;;
21198;SDS011;10757;51.038;3.712;2022-12-19T15:38:33;7.50;;;3.53;;
21198;SDS011;10757;51.038;3.712;2022-12-19T15:40:59;7.53;;;3.10;;
21198;SDS011;10757;51.038;3.712;2022-12-19T15:43:25;7.30;;;3.15;;
21198;SDS011;10757;51.038;3.712;2022-12-19T15:45:53;7.30;;;3.22;;
21198;SDS011;10757;51.038;3.712;2022-12-19T15:48:26;6.70;;;3.30;;
21198;SDS011;10757;51.038;3.712;2022-12-19T15:50:55;5.75;;;3.17;;
21198;SDS011;10757;51.038;3.712;2022-12-19T15:53:26;7.47;;;3.20;;
21198;SDS011;10757;51.038;3.712;2022-12-19T15:55:57;9.10;;;4.30;;
21198;SDS011;10757;51.038;3.712;2022-12-19T15:58:24;7.60;;;3.47;;
21198;SDS011;10757;51.038;3.712;2022-12-19T16:00:57;8.68;;;3.58;;
21198;SDS011;10757;51.038;3.712;2022-12-19T16:03:26;6.32;;;3.20;;
21198;SDS011;10757;51.038;3.712;2022-12-19T16:05:53;7.07;;;3.33;;
21198;SDS011;10757;51.038;3.712;2022-12-19T16:08:21;7.60;;;3.35;;
21198;SDS011;10757;51.038;3.712;2022-12-19T16:10:51;6.50;;;2.85;;
21198;SDS011;10757;51.038;3.712;2022-12-19T16:13:20;9.95;;;3.50;;
21198;SDS011;10757;51.038;3.712;2022-12-19T16:15:49;7.03;;;3.30;;
21198;SDS011;10757;51.038;3.712;2022-12-19T16:18:16;5.40;;;2.58;;
21198;SDS011;10757;51.038;3.712;2022-12-19T16:20:45;11.35;;;3.75;;
21198;SDS011;10757;51.038;3.712;2022-12-19T16:23:12;6.43;;;3.10;;
21198;SDS011;10757;51.038;3.712;2022-12-19T16:25:43;11.57;;;3.05;;
21198;SDS011;10757;51.038;3.712;2022-12-19T16:28:14;7.38;;;3.40;;
21198;SDS011;10757;51.038;3.712;2022-12-19T16:30:42;6.25;;;3.17;;
21198;SDS011;10757;51.038;3.712;2022-12-19T16:33:22;11.98;;;4.15;;
21198;SDS011;10757;51.038;3.712;2022-12-19T16:35:50;9.68;;;3.45;;
21198;SDS011;10757;51.038;3.712;2022-12-19T16:38:17;10.02;;;3.90;;
21198;SDS011;10757;51.038;3.712;2022-12-19T16:40:43;8.80;;;3.40;;
21198;SDS011;10757;51.038;3.712;2022-12-19T16:43:18;5.80;;;3.20;;
21198;SDS011;10757;51.038;3.712;2022-12-19T16:45:56;6.70;;;3.42;;
21198;SDS011;10757;51.038;3.712;2022-12-19T16:48:24;10.68;;;3.97;;
21198;SDS011;10757;51.038;3.712;2022-12-19T16:50:55;8.50;;;3.90;;
21198;SDS011;10757;51.038;3.712;2022-12-19T16:53:23;7.65;;;3.38;;
21198;SDS011;10757;51.038;3.712;2022-12-19T16:55:49;7.53;;;3.50;;
21198;SDS011;10757;51.038;3.712;2022-12-19T16:58:20;5.22;;;3.20;;
21198;SDS011;10757;51.038;3.712;2022-12-19T17:00:51;8.70;;;4.05;;
21198;SDS011;10757;51.038;3.712;2022-12-19T17:03:33;7.90;;;4.35;;
21198;SDS011;10757;51.038;3.712;2022-12-19T17:06:11;6.88;;;3.88;;
21198;SDS011;10757;51.038;3.712;2022-12-19T17:08:37;8.73;;;3.20;;
21198;SDS011;10757;51.038;3.712;2022-12-19T17:11:03;10.40;;;4.10;;
21198;SDS011;10757;51.038;3.712;2022-12-19T17:13:32;8.20;;;3.92;;
21198;SDS011;10757;51.038;3.712;2022-12-19T17:15:58;7.15;;;3.85;;
21198;SDS011;10757;51.038;3.712;2022-12-19T17:18:28;12.10;;;4.53;;
21198;SDS011;10757;51.038;3.712;2022-12-19T17:20:57;13.55;;;5.57;;
21198;SDS011;10757;51.038;3.712;2022-12-19T17:23:26;20.92;;;7.85;;
21198;SDS011;10757;51.038;3.712;2022-12-19T17:25:54;21.42;;;7.40;;
21198;SDS011;10757;51.038;3.712;2022-12-19T17:28:21;10.75;;;5.25;;
21198;SDS011;10757;51.038;3.712;2022-12-19T17:30:51;7.95;;;3.53;;
21198;SDS011;10757;51.038;3.712;2022-12-19T17:33:29;6.60;;;3.67;;
21198;SDS011;10757;51.038;3.712;2022-12-19T17:36:01;7.38;;;3.55;;
21198;SDS011;10757;51.038;3.712;2022-12-19T17:38:30;10.07;;;3.88;;
21198;SDS011;10757;51.038;3.712;2022-12-19T17:40:56;9.00;;;3.58;;
21198;SDS011;10757;51.038;3.712;2022-12-19T17:43:22;8.73;;;2.92;;